createdAt,value
2018-09-19T05:41:23.375Z,13.55
2018-09-19T05:43:52.016Z,13.77
2018-09-19T05:46:20.682Z,13.95
2018-09-19T05:48:49.333Z,14.08
2018-09-19T05:51:18.020Z,14.23
2018-09-19T05:53:46.716Z,14.37
2018-09-19T05:56:15.383Z,14.45
2018-09-19T05:58:44.058Z,14.55
2018-09-19T06:01:12.820Z,14.63
2018-09-19T06:03:41.449Z,14.77
2018-09-19T06:06:10.136Z,14.92
2018-09-19T06:08:38.784Z,14.97
2018-09-19T06:11:07.479Z,15.10
2018-09-19T06:13:36.118Z,15.19
2018-09-19T06:16:04.831Z,15.27
2018-09-19T06:18:33.588Z,15.35
2018-09-19T06:21:02.268Z,15.41
2018-09-19T06:23:30.915Z,15.50
2018-09-19T06:25:59.590Z,15.53
2018-09-19T06:28:28.310Z,15.61
2018-09-19T06:30:57.000Z,15.67
2018-09-19T06:33:25.846Z,15.75
2018-09-19T06:35:54.503Z,15.76
2018-09-19T06:38:23.210Z,15.88
2018-09-19T06:40:51.996Z,15.98
2018-09-19T06:43:20.602Z,16.09
2018-09-19T06:45:49.577Z,16.16
2018-09-19T06:48:18.287Z,16.30
2018-09-19T06:50:46.966Z,16.31
2018-09-19T06:53:15.641Z,16.39
2018-09-19T06:55:44.354Z,16.38
2018-09-19T06:58:12.987Z,16.48
2018-09-19T07:00:41.663Z,16.55
2018-09-19T07:03:10.282Z,16.59
2018-09-19T07:05:39.037Z,16.59
2018-09-19T07:08:07.731Z,16.72
2018-09-19T07:10:36.452Z,16.84
2018-09-19T07:13:05.142Z,16.97
2018-09-19T07:15:33.822Z,16.95
2018-09-19T07:18:02.503Z,17.08
2018-09-19T07:20:31.220Z,17.17
2018-09-19T07:22:59.876Z,17.22
2018-09-19T07:25:28.664Z,17.26
2018-09-19T07:27:57.312Z,17.29
2018-09-19T07:30:26.017Z,17.43
2018-09-19T07:32:54.666Z,17.48
2018-09-19T07:35:23.317Z,17.56
2018-09-19T07:37:51.977Z,17.58
2018-09-19T07:40:20.712Z,17.58
2018-09-19T07:42:49.354Z,17.66
2018-09-19T07:45:24.323Z,17.73
2018-09-19T07:47:52.976Z,17.88
2018-09-19T07:50:21.679Z,17.96
2018-09-19T07:52:50.360Z,18.18
2018-09-19T07:55:19.076Z,18.33
2018-09-19T07:57:47.658Z,18.46
2018-09-19T08:00:20.163Z,18.54
2018-09-19T08:02:48.841Z,18.58
2018-09-19T08:05:17.522Z,18.73
2018-09-19T08:07:46.178Z,18.90
2018-09-19T08:10:14.854Z,19.00
2018-09-19T08:12:43.563Z,19.06
2018-09-19T08:15:12.516Z,19.13
2018-09-19T08:17:41.163Z,19.28
2018-09-19T08:20:09.916Z,19.42
2018-09-19T08:22:38.672Z,19.55
2018-09-19T08:25:07.336Z,19.60
2018-09-19T08:27:35.984Z,19.73
2018-09-19T08:30:08.722Z,19.87
2018-09-19T08:32:37.451Z,19.86
2018-09-19T08:35:06.411Z,20.07
2018-09-19T08:37:35.330Z,20.20
2018-09-19T08:40:04.091Z,20.25
2018-09-19T08:42:33.466Z,20.23
2018-09-19T08:45:02.108Z,20.38
2018-09-19T08:47:30.765Z,20.42
2018-09-19T08:49:59.462Z,20.45
2018-09-19T08:52:28.132Z,20.56
2018-09-19T08:54:56.823Z,20.68
2018-09-19T08:57:25.450Z,20.78
2018-09-19T08:59:54.147Z,20.80
2018-09-19T09:02:22.820Z,20.93
2018-09-19T09:04:51.445Z,21.05
2018-09-19T09:07:21.231Z,21.10
2018-09-19T09:09:49.882Z,21.27
2018-09-19T09:12:18.703Z,21.45
2018-09-19T09:14:47.326Z,21.51
2018-09-19T09:17:15.955Z,21.68
2018-09-19T09:19:44.676Z,21.51
2018-09-19T09:22:13.394Z,21.69
2018-09-19T09:24:42.079Z,21.74
2018-09-19T09:27:10.818Z,21.97
2018-09-19T09:29:39.475Z,22.06
2018-09-19T09:32:08.162Z,22.11
2018-09-19T09:34:36.786Z,22.25
2018-09-19T09:37:05.447Z,22.27
2018-09-19T09:39:34.144Z,22.30
2018-09-19T09:42:02.819Z,22.44
2018-09-19T09:44:31.511Z,22.47
2018-09-19T09:47:00.254Z,22.33
2018-09-19T09:49:28.888Z,22.44
2018-09-19T09:51:57.567Z,22.67
2018-09-19T09:54:26.244Z,22.80
2018-09-19T09:56:54.881Z,23.04
2018-09-19T09:59:23.535Z,23.30
2018-09-19T10:01:52.219Z,23.67
2018-09-19T10:04:20.850Z,24.05
2018-09-19T10:06:49.522Z,24.41
2018-09-19T10:09:18.209Z,24.99
2018-09-19T10:11:46.882Z,25.54
2018-09-19T10:14:15.547Z,25.51
2018-09-19T10:16:44.266Z,26.00
2018-09-19T10:19:12.907Z,26.40
2018-09-19T10:21:41.571Z,26.67
2018-09-19T10:24:10.213Z,27.19
2018-09-19T10:26:38.934Z,27.35
2018-09-19T10:29:07.562Z,27.05
2018-09-19T10:31:36.195Z,27.38
2018-09-19T10:34:04.855Z,27.43
2018-09-19T10:36:33.594Z,27.97
2018-09-19T10:39:02.295Z,27.72
2018-09-19T10:41:30.979Z,27.61
2018-09-19T10:43:59.667Z,27.84
2018-09-19T10:46:28.345Z,28.01
2018-09-19T10:48:57.053Z,28.08
2018-09-19T10:51:25.681Z,28.37
2018-09-19T10:53:54.430Z,28.66
2018-09-19T10:56:23.154Z,28.46
2018-09-19T10:58:51.817Z,29.03
2018-09-19T11:01:20.487Z,29.14
2018-09-19T11:03:49.192Z,29.53
2018-09-19T11:06:17.824Z,29.83
2018-09-19T11:08:46.442Z,29.95
2018-09-19T11:11:15.124Z,30.06
2018-09-19T11:13:43.770Z,30.32
2018-09-19T11:16:12.468Z,30.12
2018-09-19T11:18:41.192Z,30.36
2018-09-19T11:21:09.878Z,30.77
2018-09-19T11:23:38.590Z,30.67
2018-09-19T11:26:07.355Z,30.80
2018-09-19T11:28:36.051Z,31.29
2018-09-19T11:31:04.750Z,31.42
2018-09-19T11:33:33.400Z,31.68
2018-09-19T11:36:02.047Z,31.69
2018-09-19T11:38:30.701Z,31.77
2018-09-19T11:40:59.348Z,31.56
2018-09-19T11:43:28.026Z,31.19
2018-09-19T11:45:56.687Z,31.17
2018-09-19T11:48:25.319Z,31.17
2018-09-19T11:50:54.081Z,31.04
2018-09-19T11:53:27.106Z,31.29
2018-09-19T11:55:56.411Z,31.29
2018-09-19T11:58:25.087Z,31.30
2018-09-19T12:00:53.723Z,31.39
2018-09-19T12:03:22.422Z,31.44
2018-09-19T12:05:51.240Z,31.26
2018-09-19T12:08:20.619Z,31.83
2018-09-19T12:10:49.268Z,32.22
2018-09-19T12:13:17.962Z,31.89
2018-09-19T12:15:46.619Z,32.13
2018-09-19T12:18:15.342Z,32.43
2018-09-19T12:20:44.011Z,32.14
2018-09-19T12:23:12.623Z,31.63
2018-09-19T12:25:41.290Z,32.11
2018-09-19T12:28:10.127Z,32.28
2018-09-19T12:30:38.782Z,32.30
2018-09-19T12:33:07.489Z,32.66
2018-09-19T12:35:36.122Z,32.93
2018-09-19T12:38:04.884Z,32.93
2018-09-19T12:40:33.536Z,32.83
2018-09-19T12:43:02.162Z,33.29
2018-09-19T12:45:30.798Z,33.08
2018-09-19T12:47:59.455Z,33.17
2018-09-19T12:50:28.062Z,33.25
2018-09-19T12:52:56.729Z,33.31
2018-09-19T12:55:25.371Z,33.48
2018-09-19T12:57:54.111Z,33.66
2018-09-19T13:00:22.785Z,33.65
2018-09-19T13:02:51.433Z,33.93
2018-09-19T13:05:20.165Z,33.55
2018-09-19T13:07:48.839Z,33.97
2018-09-19T13:10:17.499Z,33.87
2018-09-19T13:12:46.117Z,33.98
2018-09-19T13:15:14.827Z,34.14
2018-09-19T13:17:43.518Z,34.06
2018-09-19T13:20:12.179Z,34.12
2018-09-19T13:22:40.925Z,33.78
2018-09-19T13:25:09.673Z,33.53
2018-09-19T13:27:38.394Z,33.69
2018-09-19T13:30:07.328Z,33.83
2018-09-19T13:32:35.979Z,33.69
2018-09-19T13:35:04.663Z,33.92
2018-09-19T13:37:33.317Z,34.02
2018-09-19T13:40:02.050Z,34.32
2018-09-19T13:42:30.735Z,34.32
2018-09-19T13:44:59.408Z,34.02
2018-09-19T13:47:28.126Z,33.68
2018-09-19T13:50:41.246Z,33.65
2018-09-19T13:53:10.739Z,34.16
2018-09-19T13:55:39.545Z,34.05
2018-09-19T13:58:08.161Z,33.49
2018-09-19T14:00:36.807Z,33.43
2018-09-19T14:03:05.494Z,33.53
2018-09-19T14:05:34.870Z,33.22
2018-09-19T14:08:03.486Z,33.35
2018-09-19T14:10:32.161Z,33.51
2018-09-19T14:13:00.887Z,33.76
2018-09-19T14:15:29.527Z,33.62
2018-09-19T14:17:58.216Z,33.61
2018-09-19T14:20:26.858Z,33.84
2018-09-19T14:22:55.527Z,33.82
2018-09-19T14:25:24.182Z,34.01
2018-09-19T14:27:52.858Z,33.87
2018-09-19T14:30:21.550Z,33.65
2018-09-19T14:32:50.191Z,33.74
2018-09-19T14:35:18.826Z,33.73
2018-09-19T14:37:47.499Z,33.55
2018-09-19T14:40:16.391Z,33.61
2018-09-19T14:42:45.142Z,33.17
2018-09-19T14:45:13.767Z,33.19
2018-09-19T14:47:42.548Z,33.00
2018-09-19T14:50:11.309Z,32.33
2018-09-19T14:52:39.951Z,32.66
2018-09-19T14:55:08.651Z,32.52
2018-09-19T14:57:37.332Z,32.27
2018-09-19T15:00:11.184Z,32.11
2018-09-19T15:02:39.953Z,31.95
2018-09-19T15:05:08.634Z,31.85
2018-09-19T15:07:37.259Z,31.71
2018-09-19T15:10:05.919Z,31.16
2018-09-19T15:12:34.628Z,31.03
2018-09-19T15:15:03.297Z,30.73
2018-09-19T15:17:31.961Z,30.90
2018-09-19T15:20:00.567Z,30.39
2018-09-19T15:22:29.190Z,30.14
2018-09-19T15:24:57.847Z,30.15
2018-09-19T15:27:26.530Z,29.82
2018-09-19T15:29:55.211Z,29.77
2018-09-19T15:32:23.898Z,29.88
2018-09-19T15:34:52.552Z,29.96
2018-09-19T15:37:21.177Z,29.83
2018-09-19T15:39:49.857Z,29.89
2018-09-19T15:42:18.581Z,29.78
2018-09-19T15:44:47.283Z,29.24
2018-09-19T15:47:15.978Z,29.14
2018-09-19T15:49:44.723Z,28.95
2018-09-19T15:52:13.439Z,28.74
2018-09-19T15:54:42.108Z,28.49
2018-09-19T15:57:10.819Z,28.38
2018-09-19T15:59:39.475Z,28.46
2018-09-19T16:02:08.232Z,28.13
2018-09-19T16:04:36.870Z,28.17
2018-09-19T16:07:05.636Z,27.92
2018-09-19T16:09:34.345Z,27.79
2018-09-19T16:12:03.161Z,27.71
2018-09-19T16:14:31.795Z,27.25
2018-09-19T16:17:00.450Z,26.87
2018-09-19T16:19:29.102Z,26.31
2018-09-19T16:21:57.783Z,26.00
2018-09-19T16:24:26.451Z,25.73
2018-09-19T16:26:55.204Z,25.44
2018-09-19T16:29:23.843Z,25.42
2018-09-19T16:31:52.474Z,25.26
2018-09-19T16:34:21.353Z,25.14
2018-09-19T16:36:50.013Z,24.83
2018-09-19T16:39:18.660Z,24.79
2018-09-19T16:41:47.272Z,24.64
2018-09-19T16:44:16.140Z,24.56
2018-09-19T16:49:09.125Z,24.25
2018-09-19T16:51:37.810Z,24.03
2018-09-19T16:54:06.506Z,23.76
2018-09-19T16:56:35.150Z,23.62
2018-09-19T16:59:03.835Z,23.27
2018-09-19T17:01:32.532Z,23.26
2018-09-19T17:04:01.184Z,23.08
2018-09-19T17:06:29.820Z,23.03
2018-09-19T17:08:58.494Z,22.92
2018-09-19T17:11:27.227Z,22.83
2018-09-19T17:13:55.855Z,22.65
2018-09-19T17:16:24.643Z,22.58
2018-09-19T17:18:53.396Z,22.59
2018-09-19T17:21:22.053Z,22.51
2018-09-19T17:23:50.718Z,22.40
2018-09-19T17:26:19.387Z,22.36
2018-09-19T17:28:48.298Z,22.18
2018-09-19T17:33:44.512Z,22.25
2018-09-19T17:36:13.173Z,22.15
2018-09-19T17:38:41.922Z,22.13
2018-09-19T17:41:10.584Z,22.01
2018-09-19T17:43:39.234Z,22.00
2018-09-19T17:46:07.940Z,21.87
2018-09-19T17:48:36.707Z,21.80
2018-09-19T17:51:05.358Z,21.73
2018-09-19T17:53:34.068Z,21.75
2018-09-19T17:56:02.721Z,21.70
2018-09-19T17:58:31.457Z,21.71
2018-09-19T18:01:00.150Z,21.44
2018-09-19T18:03:28.832Z,21.40
2018-09-19T18:05:57.569Z,21.35
2018-09-19T18:08:26.241Z,21.29
2018-09-19T18:10:54.911Z,21.27
2018-09-19T18:13:23.813Z,21.25
2018-09-19T18:15:52.486Z,21.14
2018-09-19T18:18:21.140Z,21.04
2018-09-19T18:20:49.796Z,21.07
2018-09-19T18:23:18.572Z,21.03
2018-09-19T18:25:47.255Z,20.86
2018-09-19T18:28:17.613Z,20.84
2018-09-19T18:30:46.283Z,20.72
2018-09-19T18:33:14.969Z,20.74
2018-09-19T18:35:43.628Z,20.57
2018-09-19T18:38:12.303Z,20.53
2018-09-19T18:40:41.932Z,20.44
2018-09-19T18:43:10.646Z,20.46
2018-09-19T18:45:39.375Z,20.36
2018-09-19T18:48:08.048Z,20.40
2018-09-19T18:50:36.862Z,20.34
2018-09-19T18:53:05.512Z,20.32
2018-09-19T18:55:34.156Z,20.38
2018-09-19T18:58:02.786Z,20.34
2018-09-19T19:00:31.462Z,20.33
2018-09-19T19:03:00.174Z,20.20
2018-09-19T19:05:28.828Z,20.18
2018-09-19T19:07:57.478Z,20.13
2018-09-19T19:10:26.142Z,20.10
2018-09-19T19:12:55.371Z,19.98
2018-09-19T19:15:24.024Z,19.95
2018-09-19T19:17:52.724Z,19.85
2018-09-19T19:20:21.982Z,19.73
2018-09-19T19:22:50.664Z,19.68
2018-09-19T19:25:19.632Z,19.59
2018-09-19T19:27:48.421Z,19.51
2018-09-19T19:30:17.099Z,19.46
2018-09-19T19:32:45.753Z,19.48
2018-09-19T19:35:14.428Z,19.38
2018-09-19T19:37:43.096Z,19.34
2018-09-19T19:40:11.743Z,19.28
2018-09-19T19:42:40.410Z,19.15
2018-09-19T19:45:09.118Z,19.11
2018-09-19T19:47:37.873Z,19.08
2018-09-19T19:50:06.637Z,19.01
2018-09-19T19:52:35.263Z,18.97
2018-09-19T19:55:03.979Z,18.94
2018-09-19T19:57:32.702Z,18.83
2018-09-19T20:00:01.409Z,18.84
2018-09-19T20:02:30.080Z,18.79
2018-09-19T20:04:58.790Z,18.86
2018-09-19T20:07:27.402Z,18.81
2018-09-19T20:09:56.029Z,18.84
2018-09-19T20:12:24.711Z,18.79
2018-09-19T20:14:53.344Z,18.68
2018-09-19T20:17:22.038Z,18.75
2018-09-19T20:19:50.694Z,18.71
2018-09-19T20:22:19.344Z,18.71
2018-09-19T20:24:48.048Z,18.67
2018-09-19T20:27:16.685Z,18.59
2018-09-19T20:29:45.421Z,18.58
2018-09-19T20:32:14.047Z,18.50
2018-09-19T20:34:42.740Z,18.51
2018-09-19T20:37:11.421Z,18.52
2018-09-19T20:39:40.042Z,18.58
2018-09-19T20:42:08.676Z,18.57
2018-09-19T20:44:37.333Z,18.45
2018-09-19T20:47:06.195Z,18.35
2018-09-19T20:49:34.875Z,18.33
2018-09-19T20:52:03.486Z,18.34
2018-09-19T20:54:32.182Z,18.35
2018-09-19T20:57:01.174Z,18.38
2018-09-19T20:59:29.795Z,18.29
2018-09-19T21:01:58.481Z,18.23
2018-09-19T21:04:27.205Z,18.19
2018-09-19T21:06:55.806Z,18.21
2018-09-19T21:09:24.461Z,18.14
2018-09-19T21:11:53.123Z,18.13
2018-09-19T21:14:22.102Z,18.00
2018-09-19T21:16:50.755Z,17.99
2018-09-19T21:19:19.521Z,17.95
2018-09-19T21:21:48.245Z,17.89
2018-09-19T21:24:17.023Z,17.76
2018-09-19T21:26:45.688Z,17.74
2018-09-19T21:29:14.302Z,17.65
2018-09-19T21:31:42.973Z,17.73
2018-09-19T21:34:11.672Z,17.70
2018-09-19T21:36:40.323Z,17.64
2018-09-19T21:39:10.258Z,17.66
2018-09-19T21:41:39.094Z,17.59
2018-09-19T21:44:07.814Z,17.59
2018-09-19T21:46:36.449Z,17.49
2018-09-19T21:49:05.274Z,17.42
2018-09-19T21:51:33.915Z,17.38
2018-09-19T21:54:02.585Z,17.29
2018-09-19T21:56:31.315Z,17.26
2018-09-19T21:58:59.951Z,17.25
2018-09-19T22:01:33.968Z,17.24
2018-09-19T22:04:02.603Z,17.25
2018-09-19T22:06:31.217Z,17.20
2018-09-19T22:08:59.858Z,17.15
2018-09-19T22:11:28.504Z,17.10
2018-09-19T22:13:57.140Z,17.10
2018-09-19T22:16:25.788Z,16.98
2018-09-19T22:18:54.503Z,16.92
2018-09-19T22:21:23.127Z,16.89
2018-09-19T22:23:51.755Z,16.82
2018-09-19T22:26:20.404Z,16.72
2018-09-19T22:28:49.034Z,16.71
2018-09-19T22:31:17.668Z,16.65
2018-09-19T22:33:46.296Z,16.65
2018-09-19T22:36:14.928Z,16.55
2018-09-19T22:38:43.553Z,16.43
2018-09-19T22:41:12.217Z,16.53
2018-09-19T22:43:40.844Z,16.54
2018-09-19T22:46:09.531Z,16.48
2018-09-19T22:48:38.192Z,16.54
2018-09-19T22:51:06.881Z,16.49
2018-09-19T22:53:35.563Z,16.51
2018-09-19T22:56:04.300Z,16.43
2018-09-19T22:58:32.938Z,16.45
2018-09-19T23:01:01.646Z,16.42
2018-09-19T23:03:30.318Z,16.37
2018-09-19T23:05:58.954Z,16.40
2018-09-19T23:08:27.617Z,16.36
2018-09-19T23:10:56.227Z,16.40
2018-09-19T23:13:24.969Z,16.32
2018-09-19T23:15:53.616Z,16.29
2018-09-19T23:18:22.298Z,16.26
2018-09-19T23:20:50.931Z,16.28
2018-09-19T23:23:19.564Z,16.26
2018-09-19T23:25:48.286Z,16.21
2018-09-19T23:28:16.901Z,16.21
2018-09-19T23:30:45.574Z,16.12
2018-09-19T23:33:14.176Z,16.09
2018-09-19T23:35:42.859Z,16.02
2018-09-19T23:38:11.497Z,15.97
2018-09-19T23:40:40.143Z,15.85
2018-09-19T23:43:08.772Z,15.82
2018-09-19T23:45:37.429Z,15.74
2018-09-19T23:48:06.027Z,15.64
2018-09-19T23:50:34.696Z,15.52
2018-09-19T23:53:03.363Z,15.43
2018-09-19T23:55:32.012Z,15.41
2018-09-19T23:58:00.696Z,15.41
